createdAt,value
2022-11-30T00:01:16.372Z,14.77
2022-11-30T00:04:17.915Z,13.98
2022-11-30T00:07:19.497Z,15.27
2022-11-30T00:10:22.099Z,15.10
2022-11-30T00:13:23.729Z,13.38
2022-11-30T00:16:27.283Z,13.95
2022-11-30T00:19:29.075Z,14.27
2022-11-30T00:22:30.623Z,12.98
2022-11-30T00:25:32.199Z,13.07
2022-11-30T00:28:35.450Z,12.57
2022-11-30T00:31:37.009Z,12.37
2022-11-30T00:34:38.584Z,11.77
2022-11-30T00:37:40.137Z,12.23
2022-11-30T00:40:42.069Z,12.90
2022-11-30T00:43:44.046Z,11.70
2022-11-30T00:46:45.565Z,11.38
2022-11-30T00:49:47.108Z,12.23
2022-11-30T00:52:48.704Z,13.52
2022-11-30T00:55:50.291Z,13.57
2022-11-30T00:58:52.033Z,14.18
2022-11-30T01:01:55.106Z,13.00
2022-11-30T01:04:56.646Z,12.32
2022-11-30T01:08:00.219Z,11.82
2022-11-30T01:11:14.787Z,13.43
2022-11-30T01:14:16.358Z,12.90
2022-11-30T01:17:17.902Z,13.32
2022-11-30T01:20:20.064Z,12.60
2022-11-30T01:23:21.625Z,13.10
2022-11-30T01:26:24.497Z,12.30
2022-11-30T01:29:26.324Z,12.32
2022-11-30T01:32:28.296Z,13.60
2022-11-30T01:35:30.045Z,12.18
2022-11-30T01:38:34.220Z,12.10
2022-11-30T01:41:36.837Z,11.07
2022-11-30T01:44:57.379Z,12.10
2022-11-30T01:47:58.969Z,11.25
2022-11-30T01:51:00.968Z,11.20
2022-11-30T01:54:05.820Z,10.60
2022-11-30T01:57:34.657Z,10.45
2022-11-30T02:00:36.203Z,9.57
2022-11-30T02:03:49.030Z,9.75
2022-11-30T02:06:50.713Z,10.45
2022-11-30T02:09:52.266Z,8.85
2022-11-30T02:13:35.409Z,9.48
2022-11-30T02:17:05.851Z,8.75
2022-11-30T02:20:29.354Z,8.80
2022-11-30T02:23:43.200Z,7.85
2022-11-30T02:27:03.933Z,7.82
2022-11-30T02:30:11.511Z,8.20
2022-11-30T02:33:20.266Z,8.30
2022-11-30T02:36:23.470Z,8.02
2022-11-30T02:39:25.167Z,7.70
2022-11-30T02:42:26.718Z,7.12
2022-11-30T02:45:53.375Z,7.97
2022-11-30T02:49:05.962Z,8.30
2022-11-30T02:52:10.055Z,7.40
2022-11-30T02:55:16.426Z,8.35
2022-11-30T02:58:18.273Z,7.97
2022-11-30T03:01:19.863Z,8.23
2022-11-30T03:04:21.458Z,8.52
2022-11-30T03:07:23.078Z,8.55
2022-11-30T03:10:24.637Z,7.90
2022-11-30T03:13:26.156Z,7.55
2022-11-30T03:16:27.760Z,8.30
2022-11-30T03:19:29.425Z,8.25
2022-11-30T03:22:30.993Z,7.65
2022-11-30T03:25:32.556Z,7.80
2022-11-30T03:28:35.505Z,7.62
2022-11-30T03:31:37.057Z,7.78
2022-11-30T03:34:38.572Z,7.30
2022-11-30T03:37:40.125Z,6.90
2022-11-30T03:40:41.670Z,8.07
2022-11-30T03:43:47.583Z,7.57
2022-11-30T03:46:49.177Z,7.95
2022-11-30T03:49:50.819Z,8.63
2022-11-30T03:52:52.407Z,8.32
2022-11-30T03:55:59.638Z,8.52
2022-11-30T03:59:01.224Z,8.40
2022-11-30T04:02:02.831Z,7.82
2022-11-30T04:05:04.609Z,7.68
2022-11-30T04:08:06.273Z,7.30
2022-11-30T04:11:08.652Z,7.28
2022-11-30T04:14:10.265Z,8.15
2022-11-30T04:17:11.828Z,7.87
2022-11-30T04:20:13.440Z,8.02
2022-11-30T04:23:15.053Z,7.43
2022-11-30T04:26:17.199Z,7.10
2022-11-30T04:29:18.875Z,7.65
2022-11-30T04:32:20.496Z,7.78
2022-11-30T04:35:22.055Z,8.10
2022-11-30T04:38:24.813Z,7.90
2022-11-30T04:41:26.437Z,7.62
2022-11-30T04:44:28.011Z,7.57
2022-11-30T04:47:29.651Z,6.93
2022-11-30T04:50:31.383Z,7.78
2022-11-30T04:53:34.267Z,7.40
2022-11-30T04:56:35.862Z,7.15
2022-11-30T04:59:37.457Z,6.75
2022-11-30T05:02:39.152Z,7.75
2022-11-30T05:05:40.697Z,7.28
2022-11-30T05:08:42.255Z,7.32
2022-11-30T05:11:43.816Z,7.18
2022-11-30T05:14:45.874Z,7.07
2022-11-30T05:17:47.769Z,6.47
2022-11-30T05:20:51.013Z,7.43
2022-11-30T05:23:52.746Z,6.93
2022-11-30T05:26:54.351Z,7.70
2022-11-30T05:29:56.072Z,8.50
2022-11-30T05:32:57.601Z,7.65
2022-11-30T05:35:59.244Z,7.05
2022-11-30T05:39:00.818Z,6.93
2022-11-30T05:42:02.515Z,9.15
2022-11-30T05:45:04.450Z,8.68
2022-11-30T05:48:06.759Z,7.18
2022-11-30T05:51:15.382Z,7.97
2022-11-30T05:54:17.105Z,8.27
2022-11-30T05:57:18.733Z,7.72
2022-11-30T06:00:21.375Z,8.27
2022-11-30T06:03:23.121Z,10.35
2022-11-30T06:06:24.884Z,13.10
2022-11-30T06:09:26.550Z,14.10
2022-11-30T06:12:28.090Z,19.37
2022-11-30T06:15:29.618Z,9.10
2022-11-30T06:18:31.987Z,7.87
2022-11-30T06:21:33.683Z,8.23
2022-11-30T06:24:35.256Z,7.87
2022-11-30T06:27:36.809Z,8.25
2022-11-30T06:30:38.448Z,8.10
2022-11-30T06:33:40.032Z,8.32
2022-11-30T06:36:41.574Z,8.90
2022-11-30T06:40:05.249Z,11.20
2022-11-30T06:43:04.671Z,10.07
2022-11-30T06:46:07.218Z,9.15
2022-11-30T06:49:08.863Z,8.85
2022-11-30T06:52:10.444Z,9.27
2022-11-30T06:55:12.063Z,9.70
2022-11-30T06:58:13.633Z,8.02
2022-11-30T07:01:15.555Z,7.50
2022-11-30T07:04:17.434Z,8.32
2022-11-30T07:07:19.079Z,11.57
2022-11-30T07:10:22.898Z,12.68
2022-11-30T07:13:24.479Z,10.73
2022-11-30T07:16:26.104Z,10.68
2022-11-30T07:19:27.720Z,22.15
2022-11-30T07:22:29.275Z,13.98
2022-11-30T07:25:49.324Z,8.38
2022-11-30T07:28:54.902Z,11.38
2022-11-30T07:31:56.745Z,9.65
2022-11-30T07:34:58.390Z,16.65
2022-11-30T07:38:05.345Z,18.45
2022-11-30T07:41:10.170Z,14.68
2022-11-30T07:44:12.014Z,19.90
2022-11-30T07:47:13.587Z,11.75
2022-11-30T07:50:15.188Z,10.13
2022-11-30T07:53:17.395Z,12.10
2022-11-30T07:56:20.716Z,11.18
2022-11-30T07:59:22.256Z,8.70
2022-11-30T08:02:23.913Z,7.03
2022-11-30T08:05:25.559Z,7.12
2022-11-30T08:08:30.425Z,7.37
2022-11-30T08:11:34.819Z,9.48
2022-11-30T08:14:50.677Z,9.60
2022-11-30T08:18:00.252Z,9.32
2022-11-30T08:21:06.789Z,7.25
2022-11-30T08:24:12.413Z,8.18
2022-11-30T08:27:14.067Z,7.90
2022-11-30T08:30:16.083Z,7.97
2022-11-30T08:33:17.615Z,7.60
2022-11-30T08:36:21.534Z,7.47
2022-11-30T08:39:23.109Z,5.85
2022-11-30T08:42:24.666Z,7.03
2022-11-30T08:45:26.279Z,19.23
2022-11-30T08:48:27.810Z,9.45
2022-11-30T08:51:42.173Z,14.85
2022-11-30T08:54:51.383Z,16.65
2022-11-30T08:57:53.066Z,11.00
2022-11-30T09:00:54.615Z,8.98
2022-11-30T09:03:57.409Z,7.00
2022-11-30T09:06:59.374Z,6.97
2022-11-30T09:10:01.224Z,7.12
2022-11-30T09:13:02.759Z,7.18
2022-11-30T09:16:04.828Z,7.03
2022-11-30T09:19:06.486Z,7.45
2022-11-30T09:22:08.198Z,8.00
2022-11-30T09:25:10.395Z,8.85
2022-11-30T09:28:12.533Z,5.93
2022-11-30T09:31:19.982Z,6.70
2022-11-30T09:34:21.725Z,6.70
2022-11-30T09:37:23.775Z,6.75
2022-11-30T09:40:33.929Z,6.70
2022-11-30T09:44:09.487Z,6.80
2022-11-30T09:47:46.341Z,7.25
2022-11-30T09:50:49.465Z,6.20
2022-11-30T09:53:59.635Z,6.47
2022-11-30T09:57:29.166Z,5.60
2022-11-30T10:00:31.516Z,6.50
2022-11-30T10:03:33.374Z,5.85
2022-11-30T10:06:48.403Z,9.07
2022-11-30T10:10:30.349Z,7.20
2022-11-30T10:13:55.745Z,15.55
2022-11-30T10:17:03.291Z,7.55
2022-11-30T10:23:37.813Z,7.90
2022-11-30T10:26:45.985Z,7.50
2022-11-30T10:29:47.947Z,8.80
2022-11-30T10:32:53.964Z,7.87
2022-11-30T10:36:06.040Z,7.62
2022-11-30T10:39:30.655Z,7.43
2022-11-30T10:42:42.799Z,6.50
2022-11-30T10:45:49.350Z,6.97
2022-11-30T10:49:06.318Z,6.35
2022-11-30T10:52:09.398Z,6.07
2022-11-30T10:55:19.372Z,6.25
2022-11-30T10:58:29.430Z,7.28
2022-11-30T11:01:30.982Z,6.68
2022-11-30T11:04:32.637Z,7.57
2022-11-30T11:07:42.429Z,7.60
2022-11-30T11:10:52.493Z,7.60
2022-11-30T11:14:18.841Z,8.45
2022-11-30T11:17:21.704Z,6.80
2022-11-30T11:20:39.397Z,9.38
2022-11-30T11:23:42.694Z,9.93
2022-11-30T11:26:52.343Z,8.55
2022-11-30T11:30:26.017Z,7.18
2022-11-30T11:33:29.806Z,9.38
2022-11-30T11:36:33.668Z,10.75
2022-11-30T11:39:35.313Z,10.05
2022-11-30T11:42:52.484Z,8.63
2022-11-30T11:46:11.653Z,6.37
2022-11-30T11:49:23.359Z,7.15
2022-11-30T11:52:24.897Z,8.23
2022-11-30T11:55:26.500Z,6.95
2022-11-30T11:58:37.945Z,6.45
2022-11-30T12:01:50.538Z,6.72
2022-11-30T12:04:56.517Z,5.78
2022-11-30T12:08:08.681Z,5.30
2022-11-30T12:11:18.876Z,5.40
2022-11-30T12:14:20.473Z,5.62
2022-11-30T12:17:37.530Z,6.03
2022-11-30T12:20:47.007Z,6.60
2022-11-30T12:24:02.431Z,6.18
2022-11-30T12:27:11.901Z,6.93
2022-11-30T12:30:58.763Z,5.28
2022-11-30T12:34:25.533Z,5.68
2022-11-30T12:37:55.000Z,5.93
2022-11-30T12:41:17.971Z,5.65
2022-11-30T12:44:28.937Z,4.72
2022-11-30T12:47:49.164Z,5.78
2022-11-30T12:51:12.037Z,6.62
2022-11-30T12:54:53.080Z,6.75
2022-11-30T12:58:03.614Z,6.90
2022-11-30T13:01:32.626Z,8.38
2022-11-30T13:04:43.760Z,7.72
2022-11-30T13:07:48.426Z,8.45
2022-11-30T13:10:55.689Z,6.78
2022-11-30T13:13:59.481Z,6.00
2022-11-30T13:17:06.196Z,6.93
2022-11-30T13:20:21.575Z,8.57
2022-11-30T13:23:48.092Z,8.00
2022-11-30T13:26:59.770Z,6.72
2022-11-30T13:30:21.021Z,6.65
2022-11-30T13:33:49.903Z,6.60
2022-11-30T13:36:52.184Z,8.18
2022-11-30T13:39:56.244Z,7.50
2022-11-30T13:42:58.465Z,6.78
2022-11-30T13:46:24.047Z,6.82
2022-11-30T13:49:34.627Z,7.35
2022-11-30T13:52:58.411Z,7.57
2022-11-30T13:56:13.422Z,6.50
2022-11-30T13:59:23.842Z,7.37
2022-11-30T14:02:41.450Z,8.43
2022-11-30T14:05:59.771Z,7.72
2022-11-30T14:09:01.313Z,6.55
2022-11-30T14:12:31.348Z,7.70
2022-11-30T14:15:38.966Z,8.00
2022-11-30T14:21:44.751Z,11.12
2022-11-30T14:24:48.671Z,18.67
2022-11-30T14:27:58.044Z,25.00
2022-11-30T14:31:00.526Z,17.12
2022-11-30T14:34:11.896Z,16.45
2022-11-30T14:37:22.095Z,20.37
2022-11-30T14:40:26.442Z,9.65
2022-11-30T14:43:29.888Z,10.80
2022-11-30T14:46:33.846Z,14.85
2022-11-30T14:49:35.487Z,14.90
2022-11-30T14:52:56.336Z,13.50
2022-11-30T14:56:16.593Z,11.60
2022-11-30T14:59:29.963Z,12.35
2022-11-30T15:02:38.941Z,14.05
2022-11-30T15:05:43.202Z,18.10
2022-11-30T15:08:53.128Z,16.98
2022-11-30T15:11:54.943Z,14.65
2022-11-30T15:15:15.552Z,16.73
2022-11-30T15:18:19.983Z,13.70
2022-11-30T15:21:24.432Z,12.65
2022-11-30T15:24:28.281Z,13.90
2022-11-30T15:27:30.283Z,13.00
2022-11-30T15:30:35.951Z,15.57
2022-11-30T15:33:42.901Z,15.82
2022-11-30T15:36:45.732Z,11.30
2022-11-30T15:39:56.980Z,9.80
2022-11-30T15:43:00.232Z,10.65
2022-11-30T15:46:01.905Z,11.60
2022-11-30T15:49:39.696Z,14.23
2022-11-30T15:52:44.501Z,13.02
2022-11-30T15:55:51.485Z,11.27
2022-11-30T15:59:00.987Z,10.95
2022-11-30T16:02:08.942Z,11.02
2022-11-30T16:05:14.781Z,10.52
2022-11-30T16:08:17.997Z,15.57
2022-11-30T16:11:19.791Z,24.05
2022-11-30T16:14:21.346Z,33.83
2022-11-30T16:17:23.418Z,26.10
2022-11-30T16:20:25.112Z,17.77
2022-11-30T16:23:28.333Z,31.23
2022-11-30T16:29:52.880Z,22.90
2022-11-30T16:32:54.577Z,29.40
2022-11-30T16:36:04.506Z,25.98
2022-11-30T16:39:06.913Z,18.08
2022-11-30T16:42:12.731Z,21.42
2022-11-30T16:45:17.955Z,35.50
2022-11-30T16:48:20.221Z,22.35
2022-11-30T16:51:24.438Z,23.52
2022-11-30T16:54:26.131Z,25.02
2022-11-30T16:57:27.720Z,32.67
2022-11-30T17:00:30.406Z,17.45
2022-11-30T17:03:35.528Z,16.27
2022-11-30T17:06:37.291Z,25.90
2022-11-30T17:09:41.644Z,39.92
2022-11-30T17:12:43.692Z,17.33
2022-11-30T17:15:45.778Z,22.17
2022-11-30T17:18:47.615Z,16.65
2022-11-30T17:21:51.068Z,12.90
2022-11-30T17:24:52.831Z,15.60
2022-11-30T17:27:54.874Z,12.82
2022-11-30T17:30:56.534Z,11.12
2022-11-30T17:33:58.841Z,14.40
2022-11-30T17:37:00.627Z,15.48
2022-11-30T17:40:04.124Z,13.02
2022-11-30T17:43:05.750Z,11.63
2022-11-30T17:46:11.192Z,15.90
2022-11-30T17:49:13.327Z,19.17
2022-11-30T17:52:15.447Z,33.75
2022-11-30T17:55:17.628Z,12.93
2022-11-30T17:58:20.282Z,12.90
2022-11-30T18:01:24.756Z,14.07
2022-11-30T18:04:26.824Z,19.35
2022-11-30T18:07:29.068Z,18.00
2022-11-30T18:10:31.220Z,15.75
2022-11-30T18:13:33.056Z,18.37
2022-11-30T18:16:37.509Z,25.00
2022-11-30T18:19:39.549Z,16.62
2022-11-30T18:22:41.723Z,12.75
2022-11-30T18:25:43.824Z,12.07
2022-11-30T18:28:46.592Z,18.05
2022-11-30T18:31:51.880Z,25.02
2022-11-30T18:34:54.992Z,10.70
2022-11-30T18:37:57.949Z,12.23
2022-11-30T18:41:00.902Z,12.27
2022-11-30T18:44:03.068Z,13.32
2022-11-30T18:47:05.216Z,10.88
2022-11-30T18:50:07.823Z,10.65
2022-11-30T18:53:13.766Z,10.40
2022-11-30T18:56:20.714Z,10.50
2022-11-30T18:59:22.950Z,9.95
2022-11-30T19:02:24.640Z,12.75
2022-11-30T19:05:32.493Z,19.60
2022-11-30T19:08:37.268Z,18.40
2022-11-30T19:11:40.534Z,13.30
2022-11-30T19:14:45.342Z,11.65
2022-11-30T19:17:48.687Z,9.45
2022-11-30T19:20:50.648Z,10.82
2022-11-30T19:23:52.764Z,9.88
2022-11-30T19:26:54.894Z,11.43
2022-11-30T19:29:56.974Z,11.75
2022-11-30T19:32:59.076Z,11.20
2022-11-30T19:36:05.158Z,12.65
2022-11-30T19:39:07.272Z,12.02
2022-11-30T19:42:11.426Z,14.63
2022-11-30T19:45:13.592Z,9.35
2022-11-30T19:48:15.704Z,9.05
2022-11-30T19:51:18.636Z,10.00
2022-11-30T19:54:21.038Z,9.25
2022-11-30T19:57:23.149Z,10.77
2022-11-30T20:00:26.660Z,11.48
2022-11-30T20:03:30.215Z,9.82
2022-11-30T20:06:38.669Z,9.25
2022-11-30T20:09:41.137Z,8.27
2022-11-30T20:12:43.231Z,8.85
2022-11-30T20:15:45.383Z,10.60
2022-11-30T20:18:53.113Z,12.15
2022-11-30T20:24:57.761Z,11.75
2022-11-30T20:28:00.212Z,13.15
2022-11-30T20:31:02.923Z,12.02
2022-11-30T20:34:06.004Z,12.95
2022-11-30T20:37:08.217Z,13.30
2022-11-30T20:40:10.572Z,12.18
2022-11-30T20:43:12.424Z,11.07
2022-11-30T20:46:17.209Z,12.32
2022-11-30T20:49:21.655Z,11.10
2022-11-30T20:52:23.864Z,9.85
2022-11-30T20:55:25.486Z,10.57
2022-11-30T20:58:27.735Z,9.80
2022-11-30T21:01:30.238Z,10.95
2022-11-30T21:04:31.962Z,11.02
2022-11-30T21:07:34.476Z,12.07
2022-11-30T21:10:40.028Z,11.70
2022-11-30T21:13:43.987Z,15.43
2022-11-30T21:16:45.563Z,16.83
2022-11-30T21:19:47.216Z,16.85
2022-11-30T21:22:49.208Z,13.65
2022-11-30T21:25:50.796Z,16.67
2022-11-30T21:28:54.062Z,14.75
2022-11-30T21:31:55.671Z,15.77
2022-11-30T21:34:57.361Z,14.00
2022-11-30T21:37:58.958Z,15.85
2022-11-30T21:41:01.898Z,14.20
2022-11-30T21:44:04.700Z,12.70
2022-11-30T21:47:06.276Z,12.95
2022-11-30T21:50:08.630Z,14.87
2022-11-30T21:53:10.159Z,14.30
2022-11-30T21:56:14.765Z,12.32
2022-11-30T21:59:16.611Z,12.00
2022-11-30T22:02:18.178Z,12.40
2022-11-30T22:05:19.747Z,12.23
2022-11-30T22:08:21.318Z,13.10
2022-11-30T22:11:23.618Z,12.30
2022-11-30T22:14:25.171Z,12.70
2022-11-30T22:17:26.729Z,13.88
2022-11-30T22:20:28.274Z,27.05
2022-11-30T22:23:30.012Z,32.03
2022-11-30T22:26:34.322Z,26.23
2022-11-30T22:29:35.929Z,22.30
2022-11-30T22:32:42.155Z,16.55
2022-11-30T22:35:44.989Z,14.60
2022-11-30T22:38:47.814Z,12.18
2022-11-30T22:41:55.601Z,11.70
2022-11-30T22:44:58.126Z,11.38
2022-11-30T22:47:59.648Z,12.88
2022-11-30T22:51:06.454Z,13.10
2022-11-30T22:54:08.992Z,13.20
2022-11-30T22:57:10.514Z,13.82
2022-11-30T23:00:12.678Z,13.85
2022-11-30T23:03:14.424Z,12.15
2022-11-30T23:06:18.774Z,14.15
2022-11-30T23:09:22.608Z,12.73
2022-11-30T23:12:50.849Z,13.07
2022-11-30T23:15:45.800Z,12.95
2022-11-30T23:18:55.892Z,12.68
2022-11-30T23:21:57.457Z,14.63
2022-11-30T23:24:59.008Z,14.48
2022-11-30T23:28:00.525Z,14.45
2022-11-30T23:31:03.917Z,16.33
2022-11-30T23:34:07.896Z,12.60
2022-11-30T23:37:09.455Z,11.07
2022-11-30T23:40:11.801Z,11.77
2022-11-30T23:43:13.339Z,11.68
2022-11-30T23:46:14.948Z,11.98
2022-11-30T23:49:16.522Z,11.98
2022-11-30T23:52:18.297Z,13.35
2022-11-30T23:55:19.871Z,12.85
2022-11-30T23:58:22.824Z,12.80
